Time,TemperatureF,DewpointF,PressureIn,WindDirection,WindDirectionDegrees,WindSpeedMPH,WindSpeedGustMPH,Humidity,HourlyPrecipIn,Conditions,Clouds,dailyrainin,SoftwareType,DateUTC
2013-02-27 00:11:00,40.0,39.0,-100.00,NNW,327,0.0,0.0,96,0.00,,,0.00,,2013-02-27 06:11:00,
2013-02-27 00:21:00,40.0,39.0,-100.00,NNW,327,0.0,0.0,96,0.00,,,0.00,,2013-02-27 06:21:00,
2013-02-27 00:33:00,40.0,39.0,-100.00,NNW,327,0.0,0.0,96,0.00,,,0.00,,2013-02-27 06:33:00,
2013-02-27 00:41:00,40.0,39.0,-100.00,NNW,327,0.0,0.0,96,0.00,,,0.00,,2013-02-27 06:41:00,
2013-02-27 01:12:00,39.0,38.0,-100.00,WNW,286,0.0,0.0,96,0.00,,,0.00,,2013-02-27 07:12:00,
2013-02-27 01:21:00,39.0,38.0,-100.00,WNW,286,0.0,0.0,96,0.00,,,0.00,,2013-02-27 07:21:00,
2013-02-27 01:32:00,39.0,38.0,-100.00,WNW,286,0.0,0.0,96,0.00,,,0.00,,2013-02-27 07:32:00,
2013-02-27 01:42:00,39.0,38.0,-100.00,WNW,286,0.0,0.0,96,0.00,,,0.00,,2013-02-27 07:42:00,
2013-02-27 02:11:00,38.0,37.0,-100.00,WNW,298,0.0,0.0,96,0.00,,,0.00,,2013-02-27 08:11:00,
2013-02-27 02:21:00,38.0,37.0,-100.00,WNW,298,0.0,0.0,96,0.00,,,0.00,,2013-02-27 08:21:00,
2013-02-27 02:32:00,38.0,37.0,-100.00,WNW,298,0.0,0.0,96,0.00,,,0.00,,2013-02-27 08:32:00,
2013-02-27 02:41:00,38.0,37.0,-100.00,WNW,298,0.0,0.0,96,0.00,,,0.00,,2013-02-27 08:41:00,
2013-02-27 03:12:00,37.0,36.0,-100.00,South,190,0.0,0.0,97,0.00,,,-99.99,,2013-02-27 09:12:00,
2013-02-27 03:22:00,37.0,36.0,-100.00,South,190,0.0,0.0,97,0.00,,,-99.99,,2013-02-27 09:22:00,
2013-02-27 03:32:00,37.0,36.0,-100.00,South,190,0.0,0.0,97,0.00,,,-99.99,,2013-02-27 09:32:00,
2013-02-27 03:41:00,37.0,36.0,-100.00,South,190,0.0,0.0,97,0.00,,,-99.99,,2013-02-27 09:41:00,
2013-02-27 04:12:00,36.0,35.0,-100.00,South,183,0.0,0.0,97,0.00,,,0.00,,2013-02-27 10:12:00,
2013-02-27 04:22:00,36.0,35.0,-100.00,South,183,0.0,0.0,97,0.00,,,0.00,,2013-02-27 10:22:00,
2013-02-27 04:32:00,36.0,35.0,-100.00,South,183,0.0,0.0,97,0.00,,,0.00,,2013-02-27 10:32:00,
2013-02-27 04:42:00,36.0,35.0,-100.00,South,183,0.0,0.0,97,0.00,,,0.00,,2013-02-27 10:42:00,
2013-02-27 05:12:00,35.0,34.0,-100.00,South,171,0.0,0.0,97,0.00,,,0.00,,2013-02-27 11:12:00,
2013-02-27 05:22:00,35.0,34.0,-100.00,South,171,0.0,0.0,97,0.00,,,0.00,,2013-02-27 11:22:00,
2013-02-27 05:32:00,35.0,34.0,-100.00,South,171,0.0,0.0,97,0.00,,,0.00,,2013-02-27 11:32:00,
2013-02-27 05:42:00,35.0,34.0,-100.00,South,171,0.0,0.0,97,0.00,,,0.00,,2013-02-27 11:42:00,
2013-02-27 06:13:00,34.0,33.0,-100.00,North,356,0.0,0.0,97,0.00,,,-99.99,,2013-02-27 12:13:00,
2013-02-27 06:22:00,34.0,33.0,-100.00,North,356,0.0,0.0,97,0.00,,,-99.99,,2013-02-27 12:22:00,
2013-02-27 06:33:00,34.0,33.0,-100.00,North,356,0.0,0.0,97,0.00,,,-99.99,,2013-02-27 12:33:00,
2013-02-27 06:42:00,34.0,33.0,-100.00,North,356,0.0,0.0,97,0.00,,,-99.99,,2013-02-27 12:42:00,
2013-02-27 07:11:00,33.0,32.0,-100.00,SSE,168,0.0,0.0,97,0.00,,,0.00,,2013-02-27 13:11:00,
2013-02-27 07:22:00,33.0,32.0,-100.00,SSE,168,0.0,0.0,97,0.00,,,0.00,,2013-02-27 13:22:00,
2013-02-27 07:32:00,33.0,32.0,-100.00,SSE,168,0.0,0.0,97,0.00,,,0.00,,2013-02-27 13:32:00,
2013-02-27 07:42:00,33.0,32.0,-100.00,SSE,168,0.0,0.0,97,0.00,,,0.00,,2013-02-27 13:42:00,
2013-02-27 08:12:00,41.0,40.0,-100.00,WSW,248,0.0,0.0,95,0.00,,,0.00,,2013-02-27 14:12:00,
2013-02-27 08:22:00,41.0,40.0,-100.00,WSW,248,0.0,0.0,95,0.00,,,0.00,,2013-02-27 14:22:00,
2013-02-27 08:32:00,41.0,40.0,-100.00,WSW,248,0.0,0.0,95,0.00,,,0.00,,2013-02-27 14:32:00,
2013-02-27 08:42:00,41.0,40.0,-100.00,WSW,248,0.0,0.0,95,0.00,,,0.00,,2013-02-27 14:42:00,
2013-02-27 09:12:00,53.0,43.0,-100.00,SSW,207,3.0,5.0,68,0.00,,,0.00,,2013-02-27 15:12:00,
2013-02-27 09:22:00,53.0,43.0,-100.00,SSW,207,3.0,5.0,68,0.00,,,0.00,,2013-02-27 15:22:00,
2013-02-27 09:32:00,53.0,43.0,-100.00,SSW,207,3.0,5.0,68,0.00,,,0.00,,2013-02-27 15:32:00,
2013-02-27 09:42:00,53.0,43.0,-100.00,SSW,207,3.0,5.0,68,0.00,,,0.00,,2013-02-27 15:42:00,
2013-02-27 10:12:00,59.0,38.0,-100.00,SSW,212,7.0,10.0,46,0.00,,,0.00,,2013-02-27 16:12:00,
2013-02-27 10:22:00,59.0,38.0,-100.00,SSW,212,7.0,10.0,46,0.00,,,0.00,,2013-02-27 16:22:00,
2013-02-27 10:32:00,59.0,38.0,-100.00,SSW,212,7.0,10.0,46,0.00,,,0.00,,2013-02-27 16:32:00,
2013-02-27 10:42:00,59.0,38.0,-100.00,SSW,212,7.0,10.0,46,0.00,,,0.00,,2013-02-27 16:42:00,
2013-02-27 11:11:00,63.0,37.0,-100.00,SW,236,6.0,13.0,38,0.00,,,0.00,,2013-02-27 17:11:00,
2013-02-27 11:21:00,63.0,37.0,-100.00,SW,236,6.0,13.0,38,0.00,,,0.00,,2013-02-27 17:21:00,
2013-02-27 11:32:00,63.0,37.0,-100.00,SW,236,6.0,13.0,38,0.00,,,0.00,,2013-02-27 17:32:00,
2013-02-27 11:42:00,63.0,37.0,-100.00,SW,236,6.0,13.0,38,0.00,,,0.00,,2013-02-27 17:42:00,
2013-02-27 12:11:00,65.0,34.0,-100.00,SW,220,8.0,13.0,32,0.00,,,0.00,,2013-02-27 18:11:00,
2013-02-27 12:22:00,65.0,34.0,-100.00,SW,220,8.0,13.0,32,0.00,,,0.00,,2013-02-27 18:22:00,
2013-02-27 12:32:00,65.0,34.0,-100.00,SW,220,8.0,13.0,32,0.00,,,0.00,,2013-02-27 18:32:00,
2013-02-27 12:42:00,65.0,34.0,-100.00,SW,220,8.0,13.0,32,0.00,,,0.00,,2013-02-27 18:42:00,
2013-02-27 13:12:00,68.0,35.0,-100.00,WSW,247,8.0,16.0,30,0.00,,,0.00,,2013-02-27 19:12:00,
2013-02-27 13:21:00,68.0,35.0,-100.00,WSW,247,8.0,16.0,30,0.00,,,0.00,,2013-02-27 19:21:00,
2013-02-27 13:32:00,68.0,35.0,-100.00,WSW,247,8.0,16.0,30,0.00,,,0.00,,2013-02-27 19:32:00,
2013-02-27 13:42:00,68.0,35.0,-100.00,WSW,247,8.0,16.0,30,0.00,,,0.00,,2013-02-27 19:42:00,
2013-02-27 14:12:00,70.0,35.0,-100.00,WNW,284,8.0,15.0,28,0.00,,,0.00,,2013-02-27 20:12:00,
2013-02-27 14:22:00,70.0,35.0,-100.00,WNW,284,8.0,15.0,28,0.00,,,0.00,,2013-02-27 20:22:00,
2013-02-27 14:32:00,70.0,35.0,-100.00,WNW,284,8.0,15.0,28,0.00,,,0.00,,2013-02-27 20:32:00,
2013-02-27 14:42:00,70.0,35.0,-100.00,WNW,284,8.0,15.0,28,0.00,,,0.00,,2013-02-27 20:42:00,
2013-02-27 15:11:00,68.0,37.0,-100.00,NW,306,7.0,13.0,32,0.00,,,-99.99,,2013-02-27 21:11:00,
2013-02-27 15:22:00,68.0,37.0,-100.00,NW,306,7.0,13.0,32,0.00,,,-99.99,,2013-02-27 21:22:00,
2013-02-27 15:32:00,68.0,37.0,-100.00,NW,306,7.0,13.0,32,0.00,,,-99.99,,2013-02-27 21:32:00,
2013-02-27 15:42:00,68.0,37.0,-100.00,NW,306,7.0,13.0,32,0.00,,,-99.99,,2013-02-27 21:42:00,
2013-02-27 16:11:00,65.0,39.0,-100.00,NNW,341,8.0,22.0,38,0.00,,,0.00,,2013-02-27 22:11:00,
2013-02-27 16:21:00,65.0,39.0,-100.00,NNW,341,8.0,22.0,38,0.00,,,0.00,,2013-02-27 22:21:00,
2013-02-27 16:32:00,65.0,39.0,-100.00,NNW,341,8.0,22.0,38,0.00,,,0.00,,2013-02-27 22:32:00,
2013-02-27 16:42:00,65.0,39.0,-100.00,NNW,341,8.0,22.0,38,0.00,,,0.00,,2013-02-27 22:42:00,
2013-02-27 18:12:00,60.0,38.0,-100.00,NNW,335,5.0,11.0,44,-99.99,,,0.00,,2013-02-28 00:12:00,
2013-02-27 18:21:00,60.0,38.0,-100.00,NNW,335,5.0,11.0,44,-99.99,,,0.00,,2013-02-28 00:21:00,
2013-02-27 18:32:00,60.0,38.0,-100.00,NNW,335,5.0,11.0,44,-99.99,,,0.00,,2013-02-28 00:32:00,
2013-02-27 18:42:00,60.0,38.0,-100.00,NNW,335,5.0,11.0,44,-99.99,,,0.00,,2013-02-28 00:42:00,
2013-02-27 19:11:00,56.0,36.0,-100.00,NW,314,4.0,6.0,47,0.00,,,-99.99,,2013-02-28 01:11:00,
2013-02-27 19:22:00,56.0,36.0,-100.00,NW,314,4.0,6.0,47,0.00,,,-99.99,,2013-02-28 01:22:00,
2013-02-27 19:32:00,56.0,36.0,-100.00,NW,314,4.0,6.0,47,0.00,,,-99.99,,2013-02-28 01:32:00,
2013-02-27 19:42:00,56.0,36.0,-100.00,NW,314,4.0,6.0,47,0.00,,,-99.99,,2013-02-28 01:42:00,
2013-02-27 20:11:00,49.0,37.0,-100.00,NW,304,2.0,3.0,64,0.00,,,0.00,,2013-02-28 02:11:00,
2013-02-27 20:22:00,49.0,37.0,-100.00,NW,304,2.0,3.0,64,0.00,,,0.00,,2013-02-28 02:22:00,
2013-02-27 20:32:00,49.0,37.0,-100.00,NW,304,2.0,3.0,64,0.00,,,0.00,,2013-02-28 02:32:00,
2013-02-27 20:41:00,49.0,37.0,-100.00,NW,304,2.0,3.0,64,0.00,,,0.00,,2013-02-28 02:41:00,
2013-02-27 21:11:00,48.0,36.0,-100.00,NW,311,2.0,3.0,63,0.00,,,0.00,,2013-02-28 03:11:00,
2013-02-27 21:21:00,48.0,36.0,-100.00,NW,311,2.0,3.0,63,0.00,,,0.00,,2013-02-28 03:21:00,
2013-02-27 21:32:00,48.0,36.0,-100.00,NW,311,2.0,3.0,63,0.00,,,0.00,,2013-02-28 03:32:00,
2013-02-27 21:42:00,48.0,36.0,-100.00,NW,311,2.0,3.0,63,0.00,,,0.00,,2013-02-28 03:42:00,
2013-02-27 22:11:00,49.0,32.0,-100.00,NW,318,4.0,8.0,52,0.00,,,0.00,,2013-02-28 04:11:00,
2013-02-27 22:21:00,49.0,32.0,-100.00,NW,318,4.0,8.0,52,0.00,,,0.00,,2013-02-28 04:21:00,
2013-02-27 22:32:00,49.0,32.0,-100.00,NW,318,4.0,8.0,52,0.00,,,0.00,,2013-02-28 04:32:00,
2013-02-27 22:42:00,49.0,32.0,-100.00,NW,318,4.0,8.0,52,0.00,,,0.00,,2013-02-28 04:42:00,
2013-02-27 23:11:00,48.0,31.0,-100.00,NW,316,3.0,7.0,51,0.00,,,0.00,,2013-02-28 05:11:00,
2013-02-27 23:22:00,48.0,31.0,-100.00,NW,316,3.0,7.0,51,0.00,,,0.00,,2013-02-28 05:22:00,
2013-02-27 23:32:00,48.0,31.0,-100.00,NW,316,3.0,7.0,51,0.00,,,0.00,,2013-02-28 05:32:00,
2013-02-27 23:42:00,48.0,31.0,-100.00,NW,316,3.0,7.0,51,0.00,,,0.00,,2013-02-28 05:42:00,